Time;durP1;ratioP1;P1;durP2;ratioP2;P2;SDS_P1;SDS_P2;PMS_P1;PMS_P2;Temp;Humidity;BMP_temperature;BMP_pressure;BME280_temperature;BME280_humidity;BME280_pressure;Samples;Min_cycle;Max_cycle;Signal;HPM_P1;HPM_P2
2021/11/02 00:01:31;;;;;;;4.10;3.15;;;8.00;73.00;;;;;;4987481;28;20585;-76
2021/11/02 00:03:58;;;;;;;4.47;3.10;;;8.00;73.50;;;;;;4985718;28;20057;-76
2021/11/02 00:06:24;;;;;;;4.70;3.15;;;7.90;72.80;;;;;;5002261;28;20117;-75
2021/11/02 00:08:50;;;;;;;4.57;3.28;;;8.00;73.00;;;;;;4994796;28;20425;-75
2021/11/02 00:11:16;;;;;;;4.38;3.20;;;7.90;72.80;;;;;;5006281;28;20089;-75
2021/11/02 00:13:46;;;;;;;5.53;3.00;;;7.90;72.80;;;;;;5022090;28;20042;-76
2021/11/02 00:16:16;;;;;;;5.93;3.35;;;7.80;72.60;;;;;;5002419;28;20077;-76
2021/11/02 00:18:46;;;;;;;4.35;2.90;;;7.80;73.10;;;;;;4987117;28;20030;-76
2021/11/02 00:21:13;;;;;;;4.95;3.10;;;7.80;72.60;;;;;;4986862;28;20034;-75
2021/11/02 00:23:39;;;;;;;5.32;3.17;;;7.80;72.60;;;;;;4986943;28;20386;-75
2021/11/02 00:26:07;;;;;;;4.00;2.70;;;7.70;72.40;;;;;;4987514;28;20057;-75
2021/11/02 00:28:36;;;;;;;4.20;3.35;;;7.70;72.40;;;;;;4992335;28;20033;-75
2021/11/02 00:31:03;;;;;;;4.95;2.90;;;7.70;72.40;;;;;;5006914;28;20046;-75
2021/11/02 00:33:30;;;;;;;4.55;3.75;;;7.70;72.40;;;;;;4998472;28;20545;-76
2021/11/02 00:35:59;;;;;;;3.85;2.90;;;7.60;72.30;;;;;;4986988;28;20404;-76
2021/11/02 00:38:26;;;;;;;4.10;2.90;;;7.60;72.30;;;;;;4985763;28;20034;-76
2021/11/02 00:40:52;;;;;;;3.60;2.83;;;7.60;72.30;;;;;;4986899;28;20034;-76
2021/11/02 00:43:18;;;;;;;3.35;2.88;;;7.60;72.20;;;;;;4987002;28;20498;-76
2021/11/02 00:45:44;;;;;;;3.65;2.90;;;7.50;72.10;;;;;;4985829;28;20030;-75
2021/11/02 00:48:13;;;;;;;3.38;3.08;;;7.50;72.10;;;;;;5003611;28;20030;-76
2021/11/02 00:50:41;;;;;;;3.90;3.15;;;7.50;72.10;;;;;;4986357;28;20093;-75
2021/11/02 00:53:08;;;;;;;4.75;2.95;;;7.50;72.10;;;;;;4986524;28;20128;-76
2021/11/02 00:55:35;;;;;;;4.75;2.80;;;7.50;72.10;;;;;;4987250;28;20034;-76
2021/11/02 00:58:04;;;;;;;3.53;3.20;;;7.50;72.10;;;;;;4986767;28;20029;-75
2021/11/02 01:00:33;;;;;;;5.78;3.10;;;7.40;71.90;;;;;;4988125;28;20457;-76
2021/11/02 01:03:00;;;;;;;3.92;2.60;;;7.40;71.90;;;;;;4989814;28;20037;-76
2021/11/02 01:05:27;;;;;;;3.17;2.65;;;7.40;71.90;;;;;;5004334;28;20038;-75
2021/11/02 01:07:53;;;;;;;4.55;2.60;;;7.40;71.90;;;;;;4986548;28;20033;-75
2021/11/02 01:10:19;;;;;;;3.20;2.40;;;7.30;71.70;;;;;;4985379;28;20125;-75
2021/11/02 01:12:49;;;;;;;4.00;2.55;;;7.30;71.70;;;;;;5001171;28;20045;-76
2021/11/02 01:15:20;;;;;;;3.55;2.92;;;7.30;71.80;;;;;;4986446;28;20567;-75
2021/11/02 01:17:46;;;;;;;3.95;2.97;;;7.30;71.90;;;;;;5001716;28;20038;-76
2021/11/02 01:20:14;;;;;;;3.08;2.78;;;7.30;71.90;;;;;;4984830;28;20073;-76
2021/11/02 01:23:11;;;;;;;5.90;2.80;;;7.30;71.90;;;;;;4986125;28;20038;-75
2021/11/02 01:25:40;;;;;;;3.78;2.67;;;7.30;72.00;;;;;;4985063;28;20576;-77
2021/11/02 01:28:07;;;;;;;4.63;2.70;;;7.30;72.00;;;;;;5001290;28;20120;-76
2021/11/02 01:30:39;;;;;;;4.30;3.00;;;7.30;72.00;;;;;;4985672;28;20121;-75
2021/11/02 01:33:06;;;;;;;3.10;2.80;;;7.20;71.80;;;;;;4985091;28;20041;-76
2021/11/02 01:35:34;;;;;;;3.75;3.08;;;7.20;71.90;;;;;;4969576;28;20027;-74
2021/11/02 01:38:04;;;;;;;3.47;2.67;;;7.30;72.10;;;;;;4985061;28;20022;-76
2021/11/02 01:40:30;;;;;;;3.58;2.13;;;7.20;71.90;;;;;;4985108;28;20421;-75
2021/11/02 01:42:57;;;;;;;6.40;2.70;;;7.20;71.90;;;;;;5001364;28;20541;-74
2021/11/02 01:45:27;;;;;;;3.08;2.50;;;7.20;71.90;;;;;;5002041;28;20379;-76
2021/11/02 01:47:56;;;;;;;3.83;2.67;;;7.20;71.90;;;;;;4985169;28;20553;-76
2021/11/02 01:50:31;;;;;;;2.88;2.50;;;7.20;71.90;;;;;;4981494;28;20137;-76
2021/11/02 01:52:58;;;;;;;5.03;3.10;;;7.10;71.70;;;;;;4969614;28;20038;-76
2021/11/02 01:55:26;;;;;;;3.15;2.58;;;7.10;71.70;;;;;;4985497;28;20057;-76
2021/11/02 01:57:52;;;;;;;3.45;2.70;;;7.10;71.70;;;;;;4986938;28;20432;-76
2021/11/02 02:00:24;;;;;;;6.38;2.38;;;7.10;71.70;;;;;;4988967;28;20042;-76
2021/11/02 02:03:23;;;;;;;3.10;2.78;;;7.10;71.70;;;;;;4988144;28;20363;-76
2021/11/02 02:06:01;;;;;;;3.78;2.53;;;7.10;71.80;;;;;;4988478;28;20505;-76
2021/11/02 02:09:03;;;;;;;3.97;2.73;;;7.00;71.60;;;;;;4988835;28;20386;-76
2021/11/02 02:11:46;;;;;;;3.92;2.15;;;7.00;71.60;;;;;;4988392;28;20521;-75
2021/11/02 02:14:18;;;;;;;5.28;2.97;;;7.00;71.60;;;;;;5001646;28;20153;-76
2021/11/02 02:16:48;;;;;;;4.20;2.40;;;7.00;71.50;;;;;;5017337;28;20149;-75
2021/11/02 02:19:31;;;;;;;3.05;2.60;;;7.00;71.60;;;;;;4987855;28;20027;-75
2021/11/02 02:22:35;;;;;;;3.58;2.60;;;6.90;71.40;;;;;;4987794;28;20453;-76
2021/11/02 02:25:30;;;;;;;3.42;2.53;;;6.90;71.40;;;;;;4969871;28;20113;-75
2021/11/02 02:28:26;;;;;;;5.13;2.97;;;6.90;71.40;;;;;;4984996;28;20140;-75
2021/11/02 02:30:58;;;;;;;3.10;2.50;;;6.90;71.40;;;;;;4966331;28;20242;-74
2021/11/02 02:33:29;;;;;;;5.40;2.97;;;6.90;71.40;;;;;;5005869;28;20505;-77
2021/11/02 02:35:56;;;;;;;3.08;2.60;;;6.90;71.40;;;;;;4990601;28;20034;-77
2021/11/02 02:38:26;;;;;;;3.40;2.92;;;6.80;71.30;;;;;;5005862;28;20018;-75
2021/11/02 02:40:57;;;;;;;3.40;2.58;;;6.80;71.30;;;;;;4989667;28;20085;-75
2021/11/02 02:43:29;;;;;;;2.70;2.35;;;6.80;71.40;;;;;;4989835;28;20030;-76
2021/11/02 02:45:58;;;;;;;3.28;2.72;;;6.80;71.40;;;;;;4991212;28;20055;-75
2021/11/02 02:48:26;;;;;;;4.32;2.80;;;6.80;71.40;;;;;;4992336;28;20045;-75
2021/11/02 02:50:55;;;;;;;3.00;2.45;;;6.80;71.40;;;;;;4992368;28;20553;-77
2021/11/02 02:53:23;;;;;;;4.45;2.95;;;6.80;71.40;;;;;;4992070;28;20026;-77
2021/11/02 02:55:49;;;;;;;3.83;2.42;;;6.70;71.30;;;;;;4994090;28;20030;-76
2021/11/02 02:58:17;;;;;;;4.43;2.42;;;6.80;71.40;;;;;;4993500;28;20038;-76
2021/11/02 03:00:46;;;;;;;2.97;2.40;;;6.70;71.30;;;;;;5008769;28;20037;-77
2021/11/02 03:03:13;;;;;;;3.25;2.25;;;6.70;71.30;;;;;;4993301;28;20470;-78
2021/11/02 03:05:40;;;;;;;2.90;2.47;;;6.70;71.30;;;;;;4992414;28;20030;-79
2021/11/02 03:08:07;;;;;;;4.03;2.35;;;6.70;71.30;;;;;;4992286;28;20072;-78
2021/11/02 03:10:34;;;;;;;3.20;2.85;;;6.70;71.30;;;;;;4991564;28;20042;-78
2021/11/02 03:13:06;;;;;;;3.90;2.25;;;6.70;71.30;;;;;;4993407;28;20030;-77
2021/11/02 03:19:16;;;;;;;3.85;2.17;;;6.70;71.30;;;;;;4991787;28;20082;-77
2021/11/02 05:09:13;;;;;;;2.40;1.75;;;5.90;70.10;;;;;;5006546;28;20477;-77
2021/11/02 06:06:06;;;;;;;6.82;1.85;;;5.60;69.70;;;;;;4989998;28;20429;-77
2021/11/02 06:29:23;;;;;;;2.90;1.90;;;5.50;69.50;;;;;;4989022;28;20034;-77
2021/11/02 06:31:58;;;;;;;2.22;1.70;;;5.50;69.50;;;;;;4989500;28;20042;-76
2021/11/02 06:48:07;;;;;;;2.28;1.73;;;5.40;69.40;;;;;;4988246;28;20068;-77
2021/11/02 07:22:51;;;;;;;13.63;7.57;;;5.90;71.80;;;;;;4988188;28;20498;-80
2021/11/02 08:48:28;;;;;;;5.65;3.63;;;11.10;81.30;;;;;;4974517;28;20105;-80
2021/11/02 08:50:56;;;;;;;5.05;3.78;;;11.30;81.50;;;;;;4986391;28;20070;-80
2021/11/02 08:53:24;;;;;;;5.30;3.65;;;11.30;81.30;;;;;;4986713;28;20027;-78
2021/11/02 08:55:51;;;;;;;6.82;3.72;;;11.40;81.30;;;;;;4986268;28;20026;-78
2021/11/02 08:58:22;;;;;;;5.75;3.25;;;11.50;81.30;;;;;;4985441;28;20117;-78
2021/11/02 09:00:49;;;;;;;5.82;2.95;;;11.60;81.40;;;;;;4986518;28;20042;-76
2021/11/02 09:03:22;;;;;;;3.30;2.92;;;11.60;81.20;;;;;;4986412;28;20038;-77
2021/11/02 09:06:00;;;;;;;2.95;2.60;;;11.70;81.20;;;;;;4986474;28;20026;-75
2021/11/02 09:08:29;;;;;;;5.45;2.90;;;11.80;81.20;;;;;;4986115;28;20058;-76
2021/11/02 09:10:57;;;;;;;5.13;2.80;;;11.90;81.10;;;;;;4986457;28;20039;-74
2021/11/02 09:13:25;;;;;;;4.18;2.75;;;11.90;80.90;;;;;;4983388;28;20034;-75
2021/11/02 09:15:56;;;;;;;4.78;2.25;;;12.00;80.90;;;;;;4986170;28;20069;-76
2021/11/02 09:18:24;;;;;;;5.25;2.22;;;12.10;81.00;;;;;;4993285;28;20588;-76
2021/11/02 09:20:51;;;;;;;3.55;2.50;;;12.10;80.70;;;;;;5020788;28;20041;-76
2021/11/02 09:23:17;;;;;;;2.83;2.20;;;12.10;80.50;;;;;;4995557;28;20022;-77
2021/11/02 09:25:43;;;;;;;4.60;1.65;;;12.20;80.50;;;;;;4983995;28;20038;-78
2021/11/02 09:28:10;;;;;;;3.70;1.95;;;12.30;80.50;;;;;;4994547;28;20391;-78
2021/11/02 09:30:36;;;;;;;2.25;1.92;;;12.30;80.40;;;;;;4985178;28;20046;-77
2021/11/02 09:33:02;;;;;;;2.67;1.88;;;12.40;80.40;;;;;;4986687;28;20029;-79
2021/11/02 09:35:30;;;;;;;4.90;2.05;;;12.50;80.50;;;;;;4986248;28;20767;-79
2021/11/02 09:38:24;;;;;;;5.90;2.50;;;12.60;80.50;;;;;;4985685;28;20387;-80
2021/11/02 09:41:11;;;;;;;3.55;1.77;;;12.70;80.70;;;;;;4984898;28;20099;-79
2021/11/02 09:43:53;;;;;;;3.53;2.17;;;12.80;80.60;;;;;;4985701;28;20482;-80
2021/11/02 09:46:39;;;;;;;2.85;1.60;;;12.90;80.50;;;;;;4985885;28;20034;-80
2021/11/02 09:49:30;;;;;;;2.78;1.40;;;13.00;80.50;;;;;;4985468;28;20502;-79
2021/11/02 09:52:38;;;;;;;1.73;1.13;;;13.10;80.50;;;;;;4986115;28;20588;-79
2021/11/02 09:55:10;;;;;;;2.42;1.48;;;13.10;80.30;;;;;;4944609;29;20046;-79
2021/11/02 09:57:57;;;;;;;1.95;1.33;;;13.30;80.50;;;;;;4978798;28;20049;-80
2021/11/02 10:00:49;;;;;;;1.20;1.10;;;13.30;80.30;;;;;;4986258;28;20474;-79
2021/11/02 10:03:33;;;;;;;3.78;1.50;;;13.40;80.30;;;;;;4995890;28;20034;-80
2021/11/02 10:06:18;;;;;;;3.85;1.63;;;13.50;80.30;;;;;;5004157;28;20034;-81
2021/11/02 10:08:55;;;;;;;2.90;1.30;;;13.70;80.40;;;;;;4995955;28;20034;-81
2021/11/02 10:11:27;;;;;;;2.45;1.45;;;13.70;80.20;;;;;;4985960;28;20058;-81
2021/11/02 10:14:04;;;;;;;2.53;1.48;;;13.90;80.40;;;;;;4998911;28;20516;-82
2021/11/02 10:16:41;;;;;;;1.35;1.15;;;14.00;80.40;;;;;;5000481;28;20030;-77
2021/11/02 10:19:47;;;;;;;3.47;1.58;;;14.10;80.30;;;;;;4986868;28;20032;-78
2021/11/02 10:22:29;;;;;;;3.63;1.65;;;14.30;80.40;;;;;;4987494;28;20510;-75
2021/11/02 10:25:21;;;;;;;4.30;1.33;;;14.40;80.30;;;;;;4989219;28;20084;-74
2021/11/02 10:28:23;;;;;;;2.90;1.10;;;14.50;80.20;;;;;;4987057;28;20496;-74
2021/11/02 10:31:00;;;;;;;4.65;1.42;;;14.60;80.20;;;;;;4958251;28;20391;-74
2021/11/02 10:33:37;;;;;;;2.25;1.15;;;14.70;80.00;;;;;;5004692;28;20057;-76
2021/11/02 10:36:16;;;;;;;3.40;1.30;;;14.80;79.80;;;;;;4980566;28;20053;-74
2021/11/02 10:39:11;;;;;;;1.38;0.93;;;14.90;79.80;;;;;;5000999;28;20049;-73
2021/11/02 10:41:49;;;;;;;3.47;1.40;;;15.10;79.80;;;;;;5008119;28;20477;-74
2021/11/02 10:44:27;;;;;;;2.30;1.10;;;15.10;79.50;;;;;;4991715;28;20034;-73
2021/11/02 10:46:58;;;;;;;1.58;1.02;;;15.20;79.40;;;;;;4991715;28;20474;-74
2021/11/02 10:49:30;;;;;;;3.88;1.48;;;15.30;79.40;;;;;;4989186;28;20166;-74
2021/11/02 10:51:57;;;;;;;;;;;15.40;79.40;;;;;;4972380;28;20054;-74
2021/11/02 10:54:45;;;;;;;5.85;1.15;;;15.50;79.40;;;;;;4989711;28;19913;-74
2021/11/02 10:57:11;;;;;;;2.42;0.80;;;15.60;79.30;;;;;;4990757;28;20409;-74
2021/11/02 10:59:44;;;;;;;2.17;0.90;;;15.70;79.20;;;;;;4989704;28;20034;-73
2021/11/02 11:02:18;;;;;;;1.23;0.82;;;15.70;78.90;;;;;;4990361;28;20053;-74
2021/11/02 11:04:47;;;;;;;3.92;1.05;;;15.80;78.70;;;;;;4989131;28;20061;-75
2021/11/02 11:07:16;;;;;;;1.25;0.90;;;15.90;78.70;;;;;;4988902;28;20121;-76
2021/11/02 11:09:47;;;;;;;2.20;1.02;;;16.00;78.50;;;;;;5004363;28;20045;-73
2021/11/02 11:12:19;;;;;;;0.88;0.65;;;16.10;78.30;;;;;;5007088;28;20038;-76
2021/11/02 11:14:46;;;;;;;1.10;0.60;;;16.20;78.20;;;;;;4971523;28;20022;-78
2021/11/02 11:17:16;;;;;;;2.22;0.88;;;16.20;77.90;;;;;;4987083;28;20406;-76
2021/11/02 11:20:04;;;;;;;6.47;2.53;;;16.30;77.80;;;;;;5005536;28;20121;-76
2021/11/02 11:22:39;;;;;;;5.13;2.25;;;16.40;78.20;;;;;;5007728;28;20062;-75
2021/11/02 11:25:19;;;;;;;4.32;2.08;;;16.40;77.40;;;;;;5023743;28;20068;-77
2021/11/02 11:27:55;;;;;;;7.80;2.28;;;16.50;77.30;;;;;;5007353;28;20048;-77
2021/11/02 11:30:29;;;;;;;4.10;1.48;;;16.60;77.30;;;;;;5003171;28;20560;-75
2021/11/02 11:32:56;;;;;;;5.35;2.05;;;16.60;77.10;;;;;;4983077;28;20026;-76
2021/11/02 11:35:22;;;;;;;7.15;1.63;;;16.70;77.10;;;;;;4978515;28;20069;-76
2021/11/02 11:37:50;;;;;;;4.70;1.95;;;16.70;76.80;;;;;;4988333;28;20034;-76
2021/11/02 11:40:21;;;;;;;3.60;1.27;;;16.80;76.60;;;;;;4986727;28;20106;-74
2021/11/02 11:42:53;;;;;;;5.30;1.30;;;16.80;76.30;;;;;;4988040;28;20438;-76
2021/11/02 11:45:25;;;;;;;4.95;2.45;;;16.90;76.20;;;;;;4988344;28;20038;-77
2021/11/02 11:48:20;;;;;;;2.23;1.07;;;16.90;76.00;;;;;;4987581;28;20030;-77
2021/11/02 11:50:48;;;;;;;1.67;1.52;;;16.90;75.80;;;;;;4988413;28;20295;-77
2021/11/02 11:53:20;;;;;;;5.18;2.08;;;16.90;75.80;;;;;;4996934;28;20060;-84
2021/11/02 11:55:49;;;;;;;2.33;1.38;;;16.90;75.60;;;;;;4997222;28;20049;-82
2021/11/02 11:58:17;;;;;;;3.38;1.38;;;16.90;75.40;;;;;;5004532;28;20435;-85
2021/11/02 12:00:49;;;;;;;3.47;1.15;;;16.90;75.30;;;;;;4987821;28;20107;-84
2021/11/02 12:03:32;;;;;;;3.05;1.58;;;16.80;74.80;;;;;;4998186;28;20033;-82
2021/11/02 12:06:21;;;;;;;3.33;1.88;;;16.80;74.70;;;;;;5008647;28;20041;-83
2021/11/02 12:09:07;;;;;;;3.72;1.30;;;16.70;74.50;;;;;;4996393;28;20034;-82
2021/11/02 12:11:35;;;;;;;6.28;1.80;;;16.60;75.00;;;;;;4988745;28;20042;-82
2021/11/02 12:14:18;;;;;;;4.72;2.17;;;16.60;75.50;;;;;;4987783;28;20030;-82
2021/11/02 12:16:46;;;;;;;6.72;1.90;;;16.60;76.00;;;;;;4975133;28;20064;-80
2021/11/02 12:19:44;;;;;;;4.65;1.65;;;16.50;76.70;;;;;;4987172;28;20030;-80
2021/11/02 12:22:17;;;;;;;6.22;2.00;;;16.60;76.50;;;;;;5003108;28;20073;-81
2021/11/02 12:24:44;;;;;;;6.72;2.75;;;16.50;76.60;;;;;;5007707;28;20080;-79
2021/11/02 12:27:18;;;;;;;5.55;2.05;;;16.60;77.20;;;;;;5022366;28;20038;-80
2021/11/02 12:29:48;;;;;;;3.30;1.35;;;16.50;77.20;;;;;;4998016;28;20034;-80
2021/11/02 12:32:17;;;;;;;3.78;1.73;;;16.50;77.30;;;;;;5022285;28;20041;-80
2021/11/02 12:34:53;;;;;;;5.15;1.42;;;16.50;77.20;;;;;;4987360;28;20404;-79
2021/11/02 12:37:21;;;;;;;2.47;1.27;;;16.50;77.10;;;;;;4987886;28;20602;-79
2021/11/02 12:39:49;;;;;;;2.88;1.70;;;16.50;77.10;;;;;;4988120;28;20027;-78
2021/11/02 12:42:20;;;;;;;3.75;1.42;;;16.50;76.90;;;;;;4986932;28;20371;-78
2021/11/02 12:44:49;;;;;;;3.03;1.30;;;16.50;76.80;;;;;;4988260;28;20073;-80
2021/11/02 12:47:23;;;;;;;5.32;1.50;;;16.50;76.70;;;;;;4988309;28;20162;-79
2021/11/02 12:49:57;;;;;;;3.38;1.10;;;16.50;76.60;;;;;;4987819;28;20043;-79
2021/11/02 12:52:31;;;;;;;3.28;1.05;;;16.50;76.40;;;;;;5004768;28;20034;-79
2021/11/02 12:55:04;;;;;;;3.25;1.23;;;16.50;76.30;;;;;;5022737;28;20092;-83
2021/11/02 12:57:42;;;;;;;2.90;1.33;;;16.50;76.30;;;;;;5006982;28;20083;-82
2021/11/02 13:00:13;;;;;;;4.93;2.03;;;16.50;76.20;;;;;;5007349;28;20065;-85
2021/11/02 13:02:44;;;;;;;2.10;1.02;;;16.40;75.90;;;;;;5007321;28;20038;-83
2021/11/02 13:05:20;;;;;;;5.90;1.50;;;16.40;75.90;;;;;;5006296;28;20549;-81
2021/11/02 13:08:10;;;;;;;3.67;1.60;;;16.40;75.90;;;;;;5005234;28;20033;-80
2021/11/02 13:10:37;;;;;;;2.47;1.05;;;16.30;75.70;;;;;;5006899;28;20473;-80
2021/11/02 13:13:15;;;;;;;4.22;1.42;;;16.20;75.50;;;;;;4999835;28;20189;-80
2021/11/02 13:15:52;;;;;;;2.55;0.90;;;16.10;75.30;;;;;;4985686;28;20481;-79
2021/11/02 13:18:37;;;;;;;2.70;1.10;;;16.10;75.40;;;;;;4986018;28;20042;-78
2021/11/02 13:21:18;;;;;;;1.33;0.93;;;16.10;75.40;;;;;;4986010;28;20122;-82
2021/11/02 13:23:52;;;;;;;2.25;1.10;;;16.10;75.40;;;;;;4982888;28;20030;-82
2021/11/02 13:26:20;;;;;;;1.77;0.80;;;16.10;75.40;;;;;;4969927;28;20141;-82
2021/11/02 13:28:47;;;;;;;1.58;1.05;;;16.10;75.30;;;;;;4984319;28;20415;-78
2021/11/02 13:31:28;;;;;;;1.55;0.98;;;16.10;75.10;;;;;;4975554;28;20046;-79
2021/11/02 13:34:09;;;;;;;4.07;1.15;;;16.10;75.00;;;;;;4987039;28;20022;-82
2021/11/02 13:36:35;;;;;;;4.68;1.50;;;16.10;75.10;;;;;;4995809;28;20036;-82
2021/11/02 13:39:10;;;;;;;1.60;1.00;;;16.10;75.10;;;;;;5003877;28;20027;-83
2021/11/02 13:41:39;;;;;;;3.50;1.10;;;16.20;75.20;;;;;;4987354;28;20401;-82
2021/11/02 13:44:10;;;;;;;4.00;1.40;;;16.10;75.00;;;;;;4999273;28;20088;-79
2021/11/02 13:46:40;;;;;;;2.40;1.15;;;16.20;75.10;;;;;;4991527;28;20041;-77
2021/11/02 13:49:08;;;;;;;3.47;1.23;;;16.20;75.10;;;;;;5001033;28;20053;-81
2021/11/02 13:51:35;;;;;;;5.18;1.45;;;16.20;75.00;;;;;;4994015;28;20053;-82
2021/11/02 13:54:03;;;;;;;3.17;1.05;;;16.20;75.00;;;;;;4982907;28;20082;-78
2021/11/02 13:56:35;;;;;;;1.70;0.70;;;16.20;74.90;;;;;;5006839;28;20041;-77
2021/11/02 13:59:02;;;;;;;3.60;1.33;;;16.20;74.90;;;;;;4986342;28;20065;-79
2021/11/02 14:01:34;;;;;;;2.88;1.17;;;16.30;75.00;;;;;;5009180;28;20065;-77
2021/11/02 14:04:06;;;;;;;4.13;1.10;;;16.30;74.90;;;;;;4993931;28;20117;-79
2021/11/02 14:06:43;;;;;;;3.37;1.50;;;16.30;74.80;;;;;;4983734;28;20096;-80
2021/11/02 14:09:15;;;;;;;2.50;1.23;;;16.20;74.70;;;;;;4985266;28;20767;-78
2021/11/02 14:11:42;;;;;;;3.03;1.02;;;16.20;74.70;;;;;;4998161;28;20048;-77
2021/11/02 14:14:44;;;;;;;3.78;1.55;;;16.20;74.80;;;;;;5005184;28;20034;-78
2021/11/02 14:17:18;;;;;;;3.15;0.95;;;16.20;74.80;;;;;;4946776;29;20615;-77
2021/11/02 14:19:48;;;;;;;3.63;1.20;;;16.10;74.60;;;;;;4996852;28;20042;-76
2021/11/02 14:22:35;;;;;;;5.25;0.77;;;16.10;74.60;;;;;;5009485;28;20026;-77
2021/11/02 14:25:12;;;;;;;1.65;0.80;;;16.10;74.60;;;;;;5023297;28;20081;-80
2021/11/02 14:27:47;;;;;;;2.58;0.90;;;16.10;74.70;;;;;;4998653;28;20033;-78
2021/11/02 14:30:31;;;;;;;1.42;0.77;;;16.00;74.50;;;;;;4978988;28;20129;-79
2021/11/02 14:32:58;;;;;;;1.40;0.80;;;16.00;74.50;;;;;;4977109;28;20057;-79
2021/11/02 14:36:00;;;;;;;1.88;0.98;;;16.00;74.60;;;;;;4990238;28;20041;-78
2021/11/02 14:38:28;;;;;;;3.03;1.02;;;16.00;74.60;;;;;;5008415;28;20034;-77
2021/11/02 14:40:57;;;;;;;2.03;1.00;;;16.00;74.60;;;;;;5003571;28;20401;-78
2021/11/02 14:43:29;;;;;;;1.80;0.70;;;16.00;74.60;;;;;;4997190;28;20034;-78
2021/11/02 14:46:03;;;;;;;3.25;0.90;;;15.90;74.40;;;;;;4995451;28;20509;-79
2021/11/02 14:48:47;;;;;;;1.83;0.75;;;15.90;74.50;;;;;;5001200;28;20552;-78
2021/11/02 14:51:12;;;;;;;2.00;0.80;;;15.90;74.40;;;;;;4998423;28;20081;-77
2021/11/02 14:53:41;;;;;;;1.92;0.82;;;15.90;74.50;;;;;;4981872;28;20450;-78
2021/11/02 14:56:11;;;;;;;2.22;0.80;;;15.90;74.40;;;;;;4995084;28;20036;-82
2021/11/02 14:58:43;;;;;;;2.30;0.80;;;15.90;74.40;;;;;;5002538;28;20025;-82
2021/11/02 15:02:05;;;;;;;2.38;0.88;;;15.80;74.20;;;;;;5003019;28;20040;-82
2021/11/02 15:04:32;;;;;;;0.95;0.70;;;15.80;74.20;;;;;;4980474;28;20045;-80
2021/11/02 15:07:01;;;;;;;3.30;1.30;;;15.80;74.10;;;;;;5004151;28;20174;-81
2021/11/02 15:09:30;;;;;;;3.78;0.70;;;15.70;74.00;;;;;;4984911;28;20030;-81
2021/11/02 15:11:56;;;;;;;1.48;0.95;;;15.60;73.90;;;;;;4987538;28;20042;-81
2021/11/02 15:14:27;;;;;;;1.85;0.85;;;15.50;73.80;;;;;;4988401;28;20493;-80
2021/11/02 15:17:02;;;;;;;1.80;0.80;;;15.40;73.70;;;;;;4999701;28;20035;-81
2021/11/02 15:19:31;;;;;;;1.20;0.77;;;15.30;73.70;;;;;;4987861;28;20030;-81
2021/11/02 15:22:07;;;;;;;2.28;0.80;;;15.20;73.70;;;;;;4987868;28;20034;-82
2021/11/02 15:24:39;;;;;;;1.85;1.02;;;15.10;73.50;;;;;;4987933;28;20029;-82
2021/11/02 15:27:13;;;;;;;1.63;0.93;;;15.00;73.50;;;;;;4987388;28;20361;-80
2021/11/02 15:29:45;;;;;;;2.30;0.85;;;15.00;73.70;;;;;;5003122;28;20030;-82
2021/11/02 15:32:23;;;;;;;1.85;0.82;;;14.90;73.70;;;;;;4987475;28;20042;-81
2021/11/02 15:34:52;;;;;;;1.45;0.88;;;14.80;73.60;;;;;;4982970;28;20178;-82
2021/11/02 15:37:44;;;;;;;0.77;0.60;;;14.70;73.60;;;;;;4967821;28;20121;-81
2021/11/02 15:40:14;;;;;;;1.17;0.70;;;14.60;73.60;;;;;;5006620;28;20033;-81
2021/11/02 15:42:46;;;;;;;3.55;1.38;;;14.50;73.50;;;;;;5004386;28;20508;-82
2021/11/02 15:45:21;;;;;;;1.85;1.05;;;14.40;73.50;;;;;;4978166;28;20031;-81
2021/11/02 15:47:51;;;;;;;2.05;1.27;;;14.40;73.70;;;;;;4987271;28;20040;-82
2021/11/02 15:50:25;;;;;;;2.13;0.73;;;14.30;73.60;;;;;;4990980;28;20053;-82
2021/11/02 15:52:56;;;;;;;1.23;0.70;;;14.20;73.60;;;;;;5001408;28;20039;-80
2021/11/02 15:55:24;;;;;;;2.53;0.90;;;14.10;73.60;;;;;;5002174;28;20473;-82
2021/11/02 15:58:01;;;;;;;1.08;0.98;;;14.00;73.50;;;;;;4989309;28;20458;-82
2021/11/02 16:00:33;;;;;;;1.85;0.65;;;14.00;73.60;;;;;;4978114;28;20047;-88
2021/11/02 16:03:00;;;;;;;1.83;0.88;;;13.90;73.60;;;;;;4995337;28;20458;-82
2021/11/02 16:05:31;;;;;;;2.05;1.02;;;13.80;73.50;;;;;;4986590;28;20506;-82
2021/11/02 16:08:01;;;;;;;0.93;0.68;;;13.70;74.00;;;;;;4986537;28;20022;-82
2021/11/02 16:10:32;;;;;;;1.23;0.65;;;13.60;73.40;;;;;;5001726;28;20034;-82
2021/11/02 16:13:04;;;;;;;1.58;0.85;;;13.50;73.30;;;;;;4991567;28;20042;-81
2021/11/02 16:15:34;;;;;;;1.73;0.80;;;13.50;73.80;;;;;;5013106;28;20050;-82
2021/11/02 16:18:22;;;;;;;2.13;0.90;;;13.40;73.90;;;;;;4989330;28;20034;-82
2021/11/02 16:20:48;;;;;;;30.13;2.60;;;13.40;74.00;;;;;;4986011;28;20170;-82
2021/11/02 16:23:20;;;;;;;1.65;1.00;;;13.30;73.90;;;;;;4986500;28;20505;-82
2021/11/02 16:25:53;;;;;;;1.27;1.00;;;13.20;73.80;;;;;;4995319;28;20038;-81
2021/11/02 16:28:31;;;;;;;2.13;0.93;;;13.20;73.90;;;;;;4995745;28;20034;-82
2021/11/02 16:31:07;;;;;;;1.27;0.70;;;13.10;73.80;;;;;;5002412;28;20042;-82
2021/11/02 16:33:36;;;;;;;3.95;0.95;;;13.00;73.70;;;;;;5001644;28;20172;-80
2021/11/02 16:36:21;;;;;;;1.40;0.93;;;12.90;73.60;;;;;;4987380;28;20224;-79
2021/11/02 16:38:49;;;;;;;1.30;0.82;;;12.90;73.80;;;;;;4987811;28;20057;-80
2021/11/02 16:41:24;;;;;;;1.33;1.00;;;12.80;73.60;;;;;;4987242;28;20037;-80
2021/11/02 16:43:52;;;;;;;2.28;1.15;;;12.70;73.80;;;;;;4986724;28;20060;-82
2021/11/02 16:46:22;;;;;;;4.05;1.77;;;12.70;74.30;;;;;;4987496;28;20039;-81
2021/11/02 16:48:48;;;;;;;3.10;1.73;;;12.60;74.80;;;;;;4986890;28;20091;-80
2021/11/02 16:51:16;;;;;;;2.58;1.70;;;12.70;75.30;;;;;;5001860;28;20065;-79
2021/11/02 16:53:43;;;;;;;2.17;1.38;;;12.70;75.60;;;;;;5002016;28;20035;-79
2021/11/02 16:56:25;;;;;;;3.67;2.00;;;12.70;76.20;;;;;;4986418;28;20360;-78
2021/11/02 16:58:53;;;;;;;1.60;0.90;;;12.70;76.30;;;;;;4986884;28;20022;-77
2021/11/02 17:01:23;;;;;;;1.80;1.40;;;12.70;76.50;;;;;;4979061;28;20041;-80
2021/11/02 17:03:50;;;;;;;4.47;1.58;;;12.70;76.90;;;;;;4985422;28;20037;-79
2021/11/02 17:06:22;;;;;;;2.45;1.30;;;12.70;76.50;;;;;;4985437;28;20034;-80
2021/11/02 17:09:08;;;;;;;2.10;1.40;;;12.70;76.50;;;;;;5001537;28;20046;-80
2021/11/02 17:11:49;;;;;;;2.15;1.30;;;12.70;76.40;;;;;;4987166;28;20074;-80
2021/11/02 17:14:16;;;;;;;1.20;1.00;;;12.60;76.20;;;;;;4985754;28;20581;-80
2021/11/02 17:16:50;;;;;;;2.38;1.20;;;12.50;75.90;;;;;;4985629;28;20026;-78
2021/11/02 17:19:19;;;;;;;1.98;1.52;;;12.40;75.80;;;;;;4986700;28;20070;-78
2021/11/02 17:21:49;;;;;;;4.90;2.50;;;12.40;75.80;;;;;;4986942;28;20048;-81
2021/11/02 17:24:16;;;;;;;1.75;1.23;;;12.30;75.60;;;;;;5001168;28;20280;-81
2021/11/02 17:26:42;;;;;;;1.58;1.10;;;12.20;75.50;;;;;;4986441;28;20406;-81
2021/11/02 17:29:09;;;;;;;1.40;1.10;;;12.10;75.40;;;;;;4987199;28;20113;-80
2021/11/02 17:31:38;;;;;;;2.33;1.30;;;12.00;75.30;;;;;;4990717;28;20137;-81
2021/11/02 17:34:23;;;;;;;1.50;1.05;;;11.90;75.30;;;;;;4989843;28;20621;-80
2021/11/02 17:36:52;;;;;;;2.03;1.15;;;11.90;75.30;;;;;;4990808;28;20038;-80
2021/11/02 17:39:20;;;;;;;3.25;1.55;;;11.80;75.10;;;;;;5000404;28;20307;-79
2021/11/02 17:41:47;;;;;;;2.78;1.40;;;11.70;75.00;;;;;;5009135;28;20637;-81
2021/11/02 17:44:14;;;;;;;2.70;1.10;;;11.60;75.40;;;;;;5010023;28;20093;-79
2021/11/02 17:46:40;;;;;;;1.58;1.42;;;11.50;74.80;;;;;;4979775;28;20158;-78
2021/11/02 17:49:07;;;;;;;2.83;1.25;;;11.50;74.90;;;;;;5006243;28;20558;-78
2021/11/02 17:51:33;;;;;;;6.85;3.05;;;11.40;74.80;;;;;;4990104;28;20048;-82
2021/11/02 17:53:59;;;;;;;4.25;2.78;;;11.30;74.80;;;;;;4990290;28;20034;-83
2021/11/02 17:56:25;;;;;;;4.55;2.67;;;11.30;75.10;;;;;;5001022;28;20121;-80
2021/11/02 17:58:52;;;;;;;4.05;2.40;;;11.30;75.20;;;;;;5003819;28;20033;-81
2021/11/02 18:01:20;;;;;;;5.82;2.97;;;11.20;75.10;;;;;;5003557;28;20121;-81
2021/11/02 18:03:47;;;;;;;6.32;3.03;;;11.20;75.10;;;;;;4997963;28;20478;-79
2021/11/02 18:06:15;;;;;;;4.65;1.95;;;11.10;75.00;;;;;;4995407;28;20125;-79
2021/11/02 18:08:45;;;;;;;6.72;2.70;;;11.10;75.00;;;;;;5004538;28;20288;-82
2021/11/02 18:11:12;;;;;;;5.05;2.20;;;11.00;74.90;;;;;;5004979;28;20100;-80
2021/11/02 18:13:39;;;;;;;4.80;2.25;;;11.00;75.00;;;;;;5000065;28;20030;-79
2021/11/02 18:16:06;;;;;;;5.68;2.05;;;10.90;74.80;;;;;;5008296;28;20433;-79
2021/11/02 18:18:37;;;;;;;5.72;2.35;;;10.80;74.70;;;;;;4989595;28;20034;-81
2021/11/02 18:21:18;;;;;;;4.75;2.17;;;10.80;74.80;;;;;;4989612;28;20105;-79
2021/11/02 18:23:48;;;;;;;4.25;2.10;;;10.70;74.70;;;;;;5004472;28;20030;-79
2021/11/02 18:26:16;;;;;;;3.15;1.63;;;10.60;74.50;;;;;;4988582;28;20034;-78
2021/11/02 18:28:43;;;;;;;2.78;2.20;;;10.60;74.60;;;;;;5010108;28;20057;-79
2021/11/02 18:31:09;;;;;;;2.63;1.67;;;10.50;74.50;;;;;;4994494;28;20573;-79
2021/11/02 18:33:36;;;;;;;3.25;1.80;;;10.50;74.50;;;;;;4990095;28;20109;-79
2021/11/02 18:36:03;;;;;;;6.60;2.88;;;10.40;74.40;;;;;;4989544;28;20837;-78